sensor_id;sensor_type;location;lat;lon;timestamp;temperature;humidity
39665;DHT22;26679;50.872;4.332;2022-07-15T00:00:05;19.20;94.80
39665;DHT22;26679;50.872;4.332;2022-07-15T00:02:31;19.10;94.90
39665;DHT22;26679;50.872;4.332;2022-07-15T00:04:57;19.10;95.00
39665;DHT22;26679;50.872;4.332;2022-07-15T00:07:22;19.00;94.90
39665;DHT22;26679;50.872;4.332;2022-07-15T00:09:48;19.00;94.90
39665;DHT22;26679;50.872;4.332;2022-07-15T00:12:24;19.10;95.00
39665;DHT22;26679;50.872;4.332;2022-07-15T00:14:50;19.00;94.90
39665;DHT22;26679;50.872;4.332;2022-07-15T00:17:15;18.90;94.90
39665;DHT22;26679;50.872;4.332;2022-07-15T00:19:41;18.90;94.90
39665;DHT22;26679;50.872;4.332;2022-07-15T00:22:06;18.90;95.00
39665;DHT22;26679;50.872;4.332;2022-07-15T00:24:32;18.90;95.00
39665;DHT22;26679;50.872;4.332;2022-07-15T00:26:57;18.90;95.20
39665;DHT22;26679;50.872;4.332;2022-07-15T00:29:23;18.90;95.20
39665;DHT22;26679;50.872;4.332;2022-07-15T00:31:48;18.90;95.30
39665;DHT22;26679;50.872;4.332;2022-07-15T00:34:14;18.90;95.40
39665;DHT22;26679;50.872;4.332;2022-07-15T00:36:39;18.80;95.40
39665;DHT22;26679;50.872;4.332;2022-07-15T00:39:05;18.80;95.60
39665;DHT22;26679;50.872;4.332;2022-07-15T00:44:08;18.60;96.10
39665;DHT22;26679;50.872;4.332;2022-07-15T00:46:34;18.60;96.10
39665;DHT22;26679;50.872;4.332;2022-07-15T00:49:00;18.70;96.30
39665;DHT22;26679;50.872;4.332;2022-07-15T00:51:27;18.70;96.30
39665;DHT22;26679;50.872;4.332;2022-07-15T00:53:53;18.70;96.20
39665;DHT22;26679;50.872;4.332;2022-07-15T00:56:20;18.60;96.20
39665;DHT22;26679;50.872;4.332;2022-07-15T00:58:48;18.60;96.20
39665;DHT22;26679;50.872;4.332;2022-07-15T01:01:14;18.60;96.20
39665;DHT22;26679;50.872;4.332;2022-07-15T01:03:43;18.50;96.20
39665;DHT22;26679;50.872;4.332;2022-07-15T01:06:10;18.50;96.30
39665;DHT22;26679;50.872;4.332;2022-07-15T01:08:36;18.50;96.30
39665;DHT22;26679;50.872;4.332;2022-07-15T01:11:02;18.50;96.30
39665;DHT22;26679;50.872;4.332;2022-07-15T01:13:28;18.50;96.40
39665;DHT22;26679;50.872;4.332;2022-07-15T01:15:53;18.40;96.70
39665;DHT22;26679;50.872;4.332;2022-07-15T01:18:19;18.30;96.80
39665;DHT22;26679;50.872;4.332;2022-07-15T01:20:45;18.30;97.20
39665;DHT22;26679;50.872;4.332;2022-07-15T01:23:14;18.20;97.30
39665;DHT22;26679;50.872;4.332;2022-07-15T01:25:40;18.30;97.40
39665;DHT22;26679;50.872;4.332;2022-07-15T01:28:07;18.30;97.40
39665;DHT22;26679;50.872;4.332;2022-07-15T01:30:32;18.30;97.50
39665;DHT22;26679;50.872;4.332;2022-07-15T01:32:58;18.30;97.50
39665;DHT22;26679;50.872;4.332;2022-07-15T01:35:23;18.30;97.50
39665;DHT22;26679;50.872;4.332;2022-07-15T01:37:49;18.30;97.20
39665;DHT22;26679;50.872;4.332;2022-07-15T01:40:14;18.30;97.20
39665;DHT22;26679;50.872;4.332;2022-07-15T01:42:40;18.30;97.20
39665;DHT22;26679;50.872;4.332;2022-07-15T01:45:06;18.30;97.30
39665;DHT22;26679;50.872;4.332;2022-07-15T01:47:32;18.30;97.40
39665;DHT22;26679;50.872;4.332;2022-07-15T01:49:58;18.30;97.60
39665;DHT22;26679;50.872;4.332;2022-07-15T01:52:24;18.20;97.80
39665;DHT22;26679;50.872;4.332;2022-07-15T01:54:50;18.20;97.80
39665;DHT22;26679;50.872;4.332;2022-07-15T01:57:15;18.20;97.80
39665;DHT22;26679;50.872;4.332;2022-07-15T01:59:41;18.20;97.80
39665;DHT22;26679;50.872;4.332;2022-07-15T02:02:07;18.10;97.90
39665;DHT22;26679;50.872;4.332;2022-07-15T02:04:32;18.10;98.00
39665;DHT22;26679;50.872;4.332;2022-07-15T02:06:58;18.10;98.10
39665;DHT22;26679;50.872;4.332;2022-07-15T02:09:23;18.00;98.20
39665;DHT22;26679;50.872;4.332;2022-07-15T02:11:48;18.00;98.30
39665;DHT22;26679;50.872;4.332;2022-07-15T02:14:14;18.00;98.40
39665;DHT22;26679;50.872;4.332;2022-07-15T02:16:40;17.90;98.50
39665;DHT22;26679;50.872;4.332;2022-07-15T02:19:05;17.90;98.50
39665;DHT22;26679;50.872;4.332;2022-07-15T02:21:31;17.90;98.60
39665;DHT22;26679;50.872;4.332;2022-07-15T02:23:56;18.00;98.60
39665;DHT22;26679;50.872;4.332;2022-07-15T02:26:25;18.00;98.50
39665;DHT22;26679;50.872;4.332;2022-07-15T02:28:51;17.90;98.40
39665;DHT22;26679;50.872;4.332;2022-07-15T02:31:17;17.90;98.50
39665;DHT22;26679;50.872;4.332;2022-07-15T02:33:42;17.90;98.50
39665;DHT22;26679;50.872;4.332;2022-07-15T02:36:08;17.80;98.70
39665;DHT22;26679;50.872;4.332;2022-07-15T02:38:33;17.90;98.50
39665;DHT22;26679;50.872;4.332;2022-07-15T02:40:59;17.80;98.40
39665;DHT22;26679;50.872;4.332;2022-07-15T02:43:24;17.80;98.60
39665;DHT22;26679;50.872;4.332;2022-07-15T02:45:50;17.80;98.60
39665;DHT22;26679;50.872;4.332;2022-07-15T02:48:15;17.80;98.60
39665;DHT22;26679;50.872;4.332;2022-07-15T02:50:41;17.80;98.50
39665;DHT22;26679;50.872;4.332;2022-07-15T02:53:07;17.80;98.60
39665;DHT22;26679;50.872;4.332;2022-07-15T02:55:32;17.80;98.60
39665;DHT22;26679;50.872;4.332;2022-07-15T02:57:58;17.70;98.80
39665;DHT22;26679;50.872;4.332;2022-07-15T03:00:23;17.70;98.90
39665;DHT22;26679;50.872;4.332;2022-07-15T03:02:49;17.70;99.00
39665;DHT22;26679;50.872;4.332;2022-07-15T03:05:15;17.70;99.10
39665;DHT22;26679;50.872;4.332;2022-07-15T03:07:41;17.60;99.20
39665;DHT22;26679;50.872;4.332;2022-07-15T03:10:07;17.60;99.40
39665;DHT22;26679;50.872;4.332;2022-07-15T03:12:33;17.60;99.50
39665;DHT22;26679;50.872;4.332;2022-07-15T03:14:59;17.60;99.60
39665;DHT22;26679;50.872;4.332;2022-07-15T03:17:25;17.50;99.80
39665;DHT22;26679;50.872;4.332;2022-07-15T03:19:50;17.50;99.90
39665;DHT22;26679;50.872;4.332;2022-07-15T03:22:15;17.50;99.90
39665;DHT22;26679;50.872;4.332;2022-07-15T03:24:41;17.50;99.90
39665;DHT22;26679;50.872;4.332;2022-07-15T03:27:07;17.40;99.90
39665;DHT22;26679;50.872;4.332;2022-07-15T03:29:33;17.50;99.90
39665;DHT22;26679;50.872;4.332;2022-07-15T03:31:59;17.50;99.90
39665;DHT22;26679;50.872;4.332;2022-07-15T03:34:24;17.40;99.90
39665;DHT22;26679;50.872;4.332;2022-07-15T03:36:50;17.40;99.90
39665;DHT22;26679;50.872;4.332;2022-07-15T03:39:16;17.50;99.90
39665;DHT22;26679;50.872;4.332;2022-07-15T03:41:41;17.40;99.90
39665;DHT22;26679;50.872;4.332;2022-07-15T03:44:07;17.40;99.90
39665;DHT22;26679;50.872;4.332;2022-07-15T03:46:32;17.40;99.90
39665;DHT22;26679;50.872;4.332;2022-07-15T03:48:59;17.40;99.90
39665;DHT22;26679;50.872;4.332;2022-07-15T03:51:25;17.30;99.90
39665;DHT22;26679;50.872;4.332;2022-07-15T03:53:59;17.40;99.90
39665;DHT22;26679;50.872;4.332;2022-07-15T03:56:25;17.30;99.90
39665;DHT22;26679;50.872;4.332;2022-07-15T03:58:50;17.30;99.90
39665;DHT22;26679;50.872;4.332;2022-07-15T04:01:16;17.30;99.90
39665;DHT22;26679;50.872;4.332;2022-07-15T04:03:41;17.30;99.90
39665;DHT22;26679;50.872;4.332;2022-07-15T04:06:07;17.30;99.90
39665;DHT22;26679;50.872;4.332;2022-07-15T04:08:32;17.30;99.90
39665;DHT22;26679;50.872;4.332;2022-07-15T04:10:58;17.30;99.90
39665;DHT22;26679;50.872;4.332;2022-07-15T04:13:23;17.30;99.90
39665;DHT22;26679;50.872;4.332;2022-07-15T04:15:49;17.30;99.90
39665;DHT22;26679;50.872;4.332;2022-07-15T04:18:14;17.30;99.90
39665;DHT22;26679;50.872;4.332;2022-07-15T04:20:40;17.30;99.90
39665;DHT22;26679;50.872;4.332;2022-07-15T04:23:05;17.40;99.90
39665;DHT22;26679;50.872;4.332;2022-07-15T04:25:31;17.40;99.90
39665;DHT22;26679;50.872;4.332;2022-07-15T04:27:56;17.40;99.90
39665;DHT22;26679;50.872;4.332;2022-07-15T04:30:22;17.50;99.90
39665;DHT22;26679;50.872;4.332;2022-07-15T04:32:47;17.50;99.90
39665;DHT22;26679;50.872;4.332;2022-07-15T04:35:13;17.50;99.90
39665;DHT22;26679;50.872;4.332;2022-07-15T04:37:39;17.60;99.90
39665;DHT22;26679;50.872;4.332;2022-07-15T04:40:04;17.60;99.90
39665;DHT22;26679;50.872;4.332;2022-07-15T04:42:32;17.60;99.90
39665;DHT22;26679;50.872;4.332;2022-07-15T04:44:58;17.60;99.90
39665;DHT22;26679;50.872;4.332;2022-07-15T04:47:23;17.50;99.90
39665;DHT22;26679;50.872;4.332;2022-07-15T04:49:49;17.60;99.90
39665;DHT22;26679;50.872;4.332;2022-07-15T04:52:24;17.60;99.90
39665;DHT22;26679;50.872;4.332;2022-07-15T04:54:53;17.60;99.90
39665;DHT22;26679;50.872;4.332;2022-07-15T04:57:19;17.50;99.90
39665;DHT22;26679;50.872;4.332;2022-07-15T04:59:45;17.60;99.90
39665;DHT22;26679;50.872;4.332;2022-07-15T05:02:10;17.70;99.90
39665;DHT22;26679;50.872;4.332;2022-07-15T05:04:39;17.60;99.90
39665;DHT22;26679;50.872;4.332;2022-07-15T05:07:04;17.70;99.90
39665;DHT22;26679;50.872;4.332;2022-07-15T05:09:30;17.80;99.90
39665;DHT22;26679;50.872;4.332;2022-07-15T05:11:56;18.00;99.90
39665;DHT22;26679;50.872;4.332;2022-07-15T05:14:21;18.00;99.90
39665;DHT22;26679;50.872;4.332;2022-07-15T05:16:47;18.00;99.90
39665;DHT22;26679;50.872;4.332;2022-07-15T05:19:12;18.10;99.90
39665;DHT22;26679;50.872;4.332;2022-07-15T05:21:38;18.10;99.90
39665;DHT22;26679;50.872;4.332;2022-07-15T05:24:03;18.00;99.90
39665;DHT22;26679;50.872;4.332;2022-07-15T05:26:29;18.00;99.90
39665;DHT22;26679;50.872;4.332;2022-07-15T05:28:54;18.10;99.90
39665;DHT22;26679;50.872;4.332;2022-07-15T05:31:20;18.10;99.90
39665;DHT22;26679;50.872;4.332;2022-07-15T05:33:45;18.00;99.90
39665;DHT22;26679;50.872;4.332;2022-07-15T05:36:11;18.00;99.90
39665;DHT22;26679;50.872;4.332;2022-07-15T05:38:37;18.00;99.90
39665;DHT22;26679;50.872;4.332;2022-07-15T05:41:02;18.00;99.90
39665;DHT22;26679;50.872;4.332;2022-07-15T05:43:29;18.10;99.90
39665;DHT22;26679;50.872;4.332;2022-07-15T05:45:54;18.00;99.90
39665;DHT22;26679;50.872;4.332;2022-07-15T05:48:20;18.10;99.90
39665;DHT22;26679;50.872;4.332;2022-07-15T05:50:45;18.10;99.90
39665;DHT22;26679;50.872;4.332;2022-07-15T05:53:11;18.00;99.90
39665;DHT22;26679;50.872;4.332;2022-07-15T05:55:36;18.00;99.90
39665;DHT22;26679;50.872;4.332;2022-07-15T05:58:04;18.00;99.80
39665;DHT22;26679;50.872;4.332;2022-07-15T06:00:30;17.90;99.90
39665;DHT22;26679;50.872;4.332;2022-07-15T06:02:56;17.90;99.90
39665;DHT22;26679;50.872;4.332;2022-07-15T06:05:21;18.00;99.80
39665;DHT22;26679;50.872;4.332;2022-07-15T06:07:47;18.10;99.70
39665;DHT22;26679;50.872;4.332;2022-07-15T06:10:12;18.10;99.40
39665;DHT22;26679;50.872;4.332;2022-07-15T06:12:38;18.00;99.20
39665;DHT22;26679;50.872;4.332;2022-07-15T06:15:03;18.00;99.40
39665;DHT22;26679;50.872;4.332;2022-07-15T06:17:29;17.80;99.40
39665;DHT22;26679;50.872;4.332;2022-07-15T06:19:55;17.80;99.70
39665;DHT22;26679;50.872;4.332;2022-07-15T06:22:21;17.90;99.40
39665;DHT22;26679;50.872;4.332;2022-07-15T06:24:46;18.00;99.20
39665;DHT22;26679;50.872;4.332;2022-07-15T06:27:12;18.00;99.00
39665;DHT22;26679;50.872;4.332;2022-07-15T06:29:37;18.10;98.80
39665;DHT22;26679;50.872;4.332;2022-07-15T06:32:03;18.30;98.50
39665;DHT22;26679;50.872;4.332;2022-07-15T06:34:28;18.40;98.10
39665;DHT22;26679;50.872;4.332;2022-07-15T06:36:54;18.50;98.00
39665;DHT22;26679;50.872;4.332;2022-07-15T06:39:19;18.50;97.80
39665;DHT22;26679;50.872;4.332;2022-07-15T06:41:45;18.60;97.80
39665;DHT22;26679;50.872;4.332;2022-07-15T06:44:11;18.70;97.60
39665;DHT22;26679;50.872;4.332;2022-07-15T06:46:36;18.90;97.20
39665;DHT22;26679;50.872;4.332;2022-07-15T06:49:02;19.00;97.20
39665;DHT22;26679;50.872;4.332;2022-07-15T06:51:27;19.00;95.80
39665;DHT22;26679;50.872;4.332;2022-07-15T06:53:53;18.70;96.40
39665;DHT22;26679;50.872;4.332;2022-07-15T06:56:18;18.80;96.90
39665;DHT22;26679;50.872;4.332;2022-07-15T06:58:44;18.90;96.80
39665;DHT22;26679;50.872;4.332;2022-07-15T07:01:10;19.10;96.00
39665;DHT22;26679;50.872;4.332;2022-07-15T07:03:36;19.20;95.90
39665;DHT22;26679;50.872;4.332;2022-07-15T07:06:01;19.30;95.10
39665;DHT22;26679;50.872;4.332;2022-07-15T07:08:27;19.30;95.00
39665;DHT22;26679;50.872;4.332;2022-07-15T07:10:53;19.30;95.10
39665;DHT22;26679;50.872;4.332;2022-07-15T07:13:18;19.50;95.00
39665;DHT22;26679;50.872;4.332;2022-07-15T07:15:44;19.70;94.60
39665;DHT22;26679;50.872;4.332;2022-07-15T07:18:09;19.70;94.50
39665;DHT22;26679;50.872;4.332;2022-07-15T07:20:35;19.90;94.30
39665;DHT22;26679;50.872;4.332;2022-07-15T07:23:01;19.90;93.60
39665;DHT22;26679;50.872;4.332;2022-07-15T07:25:26;19.90;93.10
39665;DHT22;26679;50.872;4.332;2022-07-15T07:27:52;19.90;93.30
39665;DHT22;26679;50.872;4.332;2022-07-15T07:30:17;19.90;93.60
39665;DHT22;26679;50.872;4.332;2022-07-15T07:32:43;19.90;93.70
39665;DHT22;26679;50.872;4.332;2022-07-15T07:35:08;19.90;93.90
39665;DHT22;26679;50.872;4.332;2022-07-15T07:37:35;20.10;93.60
39665;DHT22;26679;50.872;4.332;2022-07-15T07:40:02;20.30;93.00
39665;DHT22;26679;50.872;4.332;2022-07-15T07:42:27;20.40;92.40
39665;DHT22;26679;50.872;4.332;2022-07-15T07:44:53;20.50;92.10
39665;DHT22;26679;50.872;4.332;2022-07-15T07:47:19;20.60;92.00
39665;DHT22;26679;50.872;4.332;2022-07-15T07:49:47;20.70;91.70
39665;DHT22;26679;50.872;4.332;2022-07-15T07:52:12;20.70;91.80
39665;DHT22;26679;50.872;4.332;2022-07-15T07:54:40;20.50;92.10
39665;DHT22;26679;50.872;4.332;2022-07-15T07:57:06;20.60;91.80
39665;DHT22;26679;50.872;4.332;2022-07-15T07:59:32;20.70;91.40
39665;DHT22;26679;50.872;4.332;2022-07-15T08:01:57;20.80;91.20
39665;DHT22;26679;50.872;4.332;2022-07-15T08:04:23;20.90;91.30
39665;DHT22;26679;50.872;4.332;2022-07-15T08:06:49;20.90;91.20
39665;DHT22;26679;50.872;4.332;2022-07-15T08:09:15;20.90;90.50
39665;DHT22;26679;50.872;4.332;2022-07-15T08:11:42;20.90;90.50
39665;DHT22;26679;50.872;4.332;2022-07-15T08:14:08;20.80;90.20
39665;DHT22;26679;50.872;4.332;2022-07-15T08:16:33;20.70;90.40
39665;DHT22;26679;50.872;4.332;2022-07-15T08:18:59;20.70;90.60
39665;DHT22;26679;50.872;4.332;2022-07-15T08:21:24;20.60;90.70
39665;DHT22;26679;50.872;4.332;2022-07-15T08:23:50;20.60;90.80
39665;DHT22;26679;50.872;4.332;2022-07-15T08:26:16;20.60;90.40
39665;DHT22;26679;50.872;4.332;2022-07-15T08:28:48;20.70;90.50
39665;DHT22;26679;50.872;4.332;2022-07-15T08:31:14;20.80;90.40
39665;DHT22;26679;50.872;4.332;2022-07-15T08:33:39;20.90;90.60
39665;DHT22;26679;50.872;4.332;2022-07-15T08:36:05;20.90;90.70
39665;DHT22;26679;50.872;4.332;2022-07-15T08:38:30;21.00;90.30
39665;DHT22;26679;50.872;4.332;2022-07-15T08:40:56;21.00;90.30
39665;DHT22;26679;50.872;4.332;2022-07-15T08:43:22;21.10;90.40
39665;DHT22;26679;50.872;4.332;2022-07-15T08:45:48;21.00;90.00
39665;DHT22;26679;50.872;4.332;2022-07-15T08:48:13;21.10;90.20
39665;DHT22;26679;50.872;4.332;2022-07-15T08:50:39;21.10;90.00
39665;DHT22;26679;50.872;4.332;2022-07-15T08:53:06;21.30;89.10
39665;DHT22;26679;50.872;4.332;2022-07-15T08:55:32;21.30;88.50
39665;DHT22;26679;50.872;4.332;2022-07-15T08:57:58;21.30;87.80
39665;DHT22;26679;50.872;4.332;2022-07-15T09:00:24;21.10;85.90
39665;DHT22;26679;50.872;4.332;2022-07-15T09:02:57;20.90;86.10
39665;DHT22;26679;50.872;4.332;2022-07-15T09:05:24;20.70;85.70
39665;DHT22;26679;50.872;4.332;2022-07-15T09:13:04;21.10;84.90
39665;DHT22;26679;50.872;4.332;2022-07-15T09:15:31;21.30;85.50
39665;DHT22;26679;50.872;4.332;2022-07-15T09:18:31;21.40;85.80
39665;DHT22;26679;50.872;4.332;2022-07-15T09:20:49;21.50;85.90
39665;DHT22;26679;50.872;4.332;2022-07-15T09:23:16;21.60;85.80
39665;DHT22;26679;50.872;4.332;2022-07-15T09:25:46;21.80;85.10
39665;DHT22;26679;50.872;4.332;2022-07-15T09:28:12;21.90;84.70
39665;DHT22;26679;50.872;4.332;2022-07-15T09:30:39;22.00;84.40
39665;DHT22;26679;50.872;4.332;2022-07-15T09:33:19;22.30;84.10
39665;DHT22;26679;50.872;4.332;2022-07-15T09:38:37;23.90;80.90
39665;DHT22;26679;50.872;4.332;2022-07-15T09:41:06;25.30;78.60
39665;DHT22;26679;50.872;4.332;2022-07-15T09:43:41;25.90;76.30
39665;DHT22;26679;50.872;4.332;2022-07-15T09:46:07;25.80;76.00
39665;DHT22;26679;50.872;4.332;2022-07-15T09:48:38;25.90;75.70
39665;DHT22;26679;50.872;4.332;2022-07-15T09:51:04;25.70;75.50
39665;DHT22;26679;50.872;4.332;2022-07-15T09:53:29;25.10;75.60
39665;DHT22;26679;50.872;4.332;2022-07-15T09:55:58;24.50;76.10
39665;DHT22;26679;50.872;4.332;2022-07-15T09:58:23;24.20;76.60
39665;DHT22;26679;50.872;4.332;2022-07-15T10:00:50;24.40;76.70
39665;DHT22;26679;50.872;4.332;2022-07-15T10:03:18;24.40;75.50
39665;DHT22;26679;50.872;4.332;2022-07-15T10:05:44;24.30;76.70
39665;DHT22;26679;50.872;4.332;2022-07-15T10:08:09;25.40;75.80
39665;DHT22;26679;50.872;4.332;2022-07-15T10:10:36;26.60;74.30
39665;DHT22;26679;50.872;4.332;2022-07-15T10:18:22;29.60;69.30
39665;DHT22;26679;50.872;4.332;2022-07-15T10:20:55;29.60;68.40
39665;DHT22;26679;50.872;4.332;2022-07-15T10:26:04;27.50;68.90
39665;DHT22;26679;50.872;4.332;2022-07-15T10:33:40;26.40;71.70
39665;DHT22;26679;50.872;4.332;2022-07-15T10:36:06;27.50;70.60
39665;DHT22;26679;50.872;4.332;2022-07-15T10:38:32;28.00;68.30
39665;DHT22;26679;50.872;4.332;2022-07-15T10:41:03;29.00;67.80
39665;DHT22;26679;50.872;4.332;2022-07-15T10:46:13;31.20;65.90
39665;DHT22;26679;50.872;4.332;2022-07-15T10:48:42;32.00;64.70
39665;DHT22;26679;50.872;4.332;2022-07-15T10:51:08;32.60;64.20
39665;DHT22;26679;50.872;4.332;2022-07-15T10:53:42;32.30;62.90
39665;DHT22;26679;50.872;4.332;2022-07-15T11:01:26;29.40;64.60
39665;DHT22;26679;50.872;4.332;2022-07-15T11:06:28;29.60;65.00
39665;DHT22;26679;50.872;4.332;2022-07-15T11:08:53;30.80;63.90
39665;DHT22;26679;50.872;4.332;2022-07-15T11:13:49;32.10;62.20
39665;DHT22;26679;50.872;4.332;2022-07-15T11:16:15;32.20;61.80
39665;DHT22;26679;50.872;4.332;2022-07-15T11:18:45;31.20;62.20
39665;DHT22;26679;50.872;4.332;2022-07-15T11:21:10;30.30;62.90
39665;DHT22;26679;50.872;4.332;2022-07-15T11:23:37;30.90;62.00
39665;DHT22;26679;50.872;4.332;2022-07-15T11:26:03;31.30;61.70
39665;DHT22;26679;50.872;4.332;2022-07-15T11:28:29;32.00;61.50
39665;DHT22;26679;50.872;4.332;2022-07-15T11:30:54;32.40;61.70
39665;DHT22;26679;50.872;4.332;2022-07-15T11:33:20;33.30;60.90
39665;DHT22;26679;50.872;4.332;2022-07-15T11:35:55;33.30;60.10
39665;DHT22;26679;50.872;4.332;2022-07-15T11:38:24;32.10;60.80
39665;DHT22;26679;50.872;4.332;2022-07-15T11:40:51;31.20;61.80
39665;DHT22;26679;50.872;4.332;2022-07-15T11:43:28;30.30;62.60
39665;DHT22;26679;50.872;4.332;2022-07-15T11:46:05;29.40;63.30
39665;DHT22;26679;50.872;4.332;2022-07-15T11:48:35;28.60;64.10
39665;DHT22;26679;50.872;4.332;2022-07-15T11:51:00;28.50;65.00
39665;DHT22;26679;50.872;4.332;2022-07-15T11:53:27;29.50;64.30
39665;DHT22;26679;50.872;4.332;2022-07-15T11:55:58;30.80;62.30
39665;DHT22;26679;50.872;4.332;2022-07-15T11:58:25;31.10;61.90
39665;DHT22;26679;50.872;4.332;2022-07-15T12:00:50;31.90;61.40
39665;DHT22;26679;50.872;4.332;2022-07-15T12:03:16;31.50;61.40
39665;DHT22;26679;50.872;4.332;2022-07-15T12:05:42;31.90;61.50
39665;DHT22;26679;50.872;4.332;2022-07-15T12:08:07;32.50;61.00
39665;DHT22;26679;50.872;4.332;2022-07-15T12:10:36;33.70;59.50
39665;DHT22;26679;50.872;4.332;2022-07-15T12:13:03;33.40;59.20
39665;DHT22;26679;50.872;4.332;2022-07-15T12:15:30;31.40;60.60
39665;DHT22;26679;50.872;4.332;2022-07-15T12:17:56;30.60;60.90
39665;DHT22;26679;50.872;4.332;2022-07-15T12:20:22;30.20;61.00
39665;DHT22;26679;50.872;4.332;2022-07-15T12:25:24;30.60;61.00
39665;DHT22;26679;50.872;4.332;2022-07-15T12:27:50;32.30;60.10
39665;DHT22;26679;50.872;4.332;2022-07-15T12:30:17;32.10;59.50
39665;DHT22;26679;50.872;4.332;2022-07-15T12:32:42;30.90;60.20
39665;DHT22;26679;50.872;4.332;2022-07-15T12:35:08;29.90;61.60
39665;DHT22;26679;50.872;4.332;2022-07-15T12:40:00;29.20;62.60
39665;DHT22;26679;50.872;4.332;2022-07-15T12:42:29;29.00;63.40
39665;DHT22;26679;50.872;4.332;2022-07-15T12:47:31;29.90;62.20
39665;DHT22;26679;50.872;4.332;2022-07-15T12:49:56;30.70;61.90
39665;DHT22;26679;50.872;4.332;2022-07-15T12:52:25;31.90;60.20
39665;DHT22;26679;50.872;4.332;2022-07-15T12:54:54;31.40;60.20
39665;DHT22;26679;50.872;4.332;2022-07-15T12:57:21;30.80;60.30
39665;DHT22;26679;50.872;4.332;2022-07-15T13:02:24;29.60;61.80
39665;DHT22;26679;50.872;4.332;2022-07-15T13:04:49;29.30;62.20
39665;DHT22;26679;50.872;4.332;2022-07-15T13:07:15;29.30;62.40
39665;DHT22;26679;50.872;4.332;2022-07-15T13:09:41;29.90;62.30
39665;DHT22;26679;50.872;4.332;2022-07-15T13:12:08;31.00;61.30
39665;DHT22;26679;50.872;4.332;2022-07-15T13:14:33;32.60;60.40
39665;DHT22;26679;50.872;4.332;2022-07-15T13:16:59;33.90;59.30
39665;DHT22;26679;50.872;4.332;2022-07-15T13:19:25;34.40;58.90
39665;DHT22;26679;50.872;4.332;2022-07-15T13:21:50;35.20;57.40
39665;DHT22;26679;50.872;4.332;2022-07-15T13:24:16;34.00;57.30
39665;DHT22;26679;50.872;4.332;2022-07-15T13:26:41;32.60;57.70
39665;DHT22;26679;50.872;4.332;2022-07-15T13:29:07;32.80;58.40
39665;DHT22;26679;50.872;4.332;2022-07-15T13:31:33;32.50;58.30
39665;DHT22;26679;50.872;4.332;2022-07-15T13:33:58;31.70;59.00
39665;DHT22;26679;50.872;4.332;2022-07-15T13:36:24;32.50;59.20
39665;DHT22;26679;50.872;4.332;2022-07-15T13:38:49;33.40;58.80
39665;DHT22;26679;50.872;4.332;2022-07-15T13:41:15;34.10;57.50
39665;DHT22;26679;50.872;4.332;2022-07-15T13:43:40;34.70;57.60
39665;DHT22;26679;50.872;4.332;2022-07-15T13:46:06;35.60;56.80
39665;DHT22;26679;50.872;4.332;2022-07-15T13:48:32;35.90;56.60
39665;DHT22;26679;50.872;4.332;2022-07-15T13:50:58;36.00;56.50
39665;DHT22;26679;50.872;4.332;2022-07-15T13:53:34;36.20;56.20
39665;DHT22;26679;50.872;4.332;2022-07-15T13:55:59;36.20;55.90
39665;DHT22;26679;50.872;4.332;2022-07-15T13:58:25;36.40;55.90
39665;DHT22;26679;50.872;4.332;2022-07-15T14:00:50;36.20;55.90
39665;DHT22;26679;50.872;4.332;2022-07-15T14:03:16;36.70;55.80
39665;DHT22;26679;50.872;4.332;2022-07-15T14:05:41;36.40;55.40
39665;DHT22;26679;50.872;4.332;2022-07-15T14:08:07;35.90;55.70
39665;DHT22;26679;50.872;4.332;2022-07-15T14:10:32;36.40;55.80
39665;DHT22;26679;50.872;4.332;2022-07-15T14:12:58;36.10;55.40
39665;DHT22;26679;50.872;4.332;2022-07-15T14:15:23;35.70;56.00
39665;DHT22;26679;50.872;4.332;2022-07-15T14:17:49;36.40;55.70
39665;DHT22;26679;50.872;4.332;2022-07-15T14:20:14;36.60;55.70
39665;DHT22;26679;50.872;4.332;2022-07-15T14:22:41;36.50;55.80
39665;DHT22;26679;50.872;4.332;2022-07-15T14:25:07;35.80;56.00
39665;DHT22;26679;50.872;4.332;2022-07-15T14:27:34;35.20;56.80
39665;DHT22;26679;50.872;4.332;2022-07-15T14:29:59;35.50;56.80
39665;DHT22;26679;50.872;4.332;2022-07-15T14:32:25;34.90;56.80
39665;DHT22;26679;50.872;4.332;2022-07-15T14:34:50;34.50;56.70
39665;DHT22;26679;50.872;4.332;2022-07-15T14:37:16;34.70;56.60
39665;DHT22;26679;50.872;4.332;2022-07-15T14:39:41;34.90;56.70
39665;DHT22;26679;50.872;4.332;2022-07-15T14:42:07;35.20;56.40
39665;DHT22;26679;50.872;4.332;2022-07-15T14:44:33;35.30;56.60
39665;DHT22;26679;50.872;4.332;2022-07-15T14:46:58;34.90;56.40
39665;DHT22;26679;50.872;4.332;2022-07-15T14:49:24;34.80;56.60
39665;DHT22;26679;50.872;4.332;2022-07-15T14:51:49;34.40;56.50
39665;DHT22;26679;50.872;4.332;2022-07-15T14:54:15;34.00;57.10
39665;DHT22;26679;50.872;4.332;2022-07-15T14:56:41;33.40;57.60
39665;DHT22;26679;50.872;4.332;2022-07-15T14:59:06;32.90;58.20
39665;DHT22;26679;50.872;4.332;2022-07-15T15:01:31;32.90;58.30
39665;DHT22;26679;50.872;4.332;2022-07-15T15:03:57;33.00;58.30
39665;DHT22;26679;50.872;4.332;2022-07-15T15:06:22;33.70;58.00
39665;DHT22;26679;50.872;4.332;2022-07-15T15:08:48;34.10;57.60
39665;DHT22;26679;50.872;4.332;2022-07-15T15:11:14;34.20;57.60
39665;DHT22;26679;50.872;4.332;2022-07-15T15:13:39;34.70;56.90
39665;DHT22;26679;50.872;4.332;2022-07-15T15:16:05;35.10;56.80
39665;DHT22;26679;50.872;4.332;2022-07-15T15:18:30;35.30;56.30
39665;DHT22;26679;50.872;4.332;2022-07-15T15:20:56;35.60;56.30
39665;DHT22;26679;50.872;4.332;2022-07-15T15:23:21;36.00;56.40
39665;DHT22;26679;50.872;4.332;2022-07-15T15:25:47;36.10;55.60
39665;DHT22;26679;50.872;4.332;2022-07-15T15:28:23;35.30;56.00
39665;DHT22;26679;50.872;4.332;2022-07-15T15:30:49;35.10;56.30
39665;DHT22;26679;50.872;4.332;2022-07-15T15:33:14;34.60;56.50
39665;DHT22;26679;50.872;4.332;2022-07-15T15:35:40;34.00;56.90
39665;DHT22;26679;50.872;4.332;2022-07-15T15:38:05;33.60;57.30
39665;DHT22;26679;50.872;4.332;2022-07-15T15:40:31;34.00;57.40
39665;DHT22;26679;50.872;4.332;2022-07-15T15:42:56;34.20;56.70
39665;DHT22;26679;50.872;4.332;2022-07-15T15:45:22;34.30;56.70
39665;DHT22;26679;50.872;4.332;2022-07-15T15:47:48;33.00;57.90
39665;DHT22;26679;50.872;4.332;2022-07-15T15:50:14;32.00;58.60
39665;DHT22;26679;50.872;4.332;2022-07-15T15:52:39;31.00;59.10
39665;DHT22;26679;50.872;4.332;2022-07-15T15:55:05;30.80;59.60
39665;DHT22;26679;50.872;4.332;2022-07-15T15:57:30;30.60;60.10
39665;DHT22;26679;50.872;4.332;2022-07-15T15:59:56;30.30;60.30
39665;DHT22;26679;50.872;4.332;2022-07-15T16:02:21;29.90;60.90
39665;DHT22;26679;50.872;4.332;2022-07-15T16:04:47;29.80;61.10
39665;DHT22;26679;50.872;4.332;2022-07-15T16:07:12;29.80;61.20
39665;DHT22;26679;50.872;4.332;2022-07-15T16:09:38;29.20;61.10